sensor_id;sensor_type;location;lat;lon;timestamp;pressure;altitude;pressure_sealevel;temperature;humidity
60820;BME280;46641;48.904;9.126;2022-11-20T00:04:21;98075.13;;;12.04;60.77
60820;BME280;46641;48.904;9.126;2022-11-20T00:09:11;98080.38;;;12.04;60.61
60820;BME280;46641;48.904;9.126;2022-11-20T00:14:02;98084.63;;;12.05;60.58
60820;BME280;46641;48.904;9.126;2022-11-20T00:18:52;98087.25;;;12.05;60.65
60820;BME280;46641;48.904;9.126;2022-11-20T00:23:43;98086.28;;;12.06;60.55
60820;BME280;46641;48.904;9.126;2022-11-20T00:28:33;98086.44;;;12.05;60.58
60820;BME280;46641;48.904;9.126;2022-11-20T00:33:24;98088.09;;;12.06;60.45
60820;BME280;46641;48.904;9.126;2022-11-20T00:38:14;98087.09;;;12.07;60.44
60820;BME280;46641;48.904;9.126;2022-11-20T00:43:04;98085.47;;;12.06;60.58
60820;BME280;46641;48.904;9.126;2022-11-20T00:47:55;98081.19;;;12.05;60.85
60820;BME280;46641;48.904;9.126;2022-11-20T00:52:45;98084.63;;;12.05;60.38
60820;BME280;46641;48.904;9.126;2022-11-20T00:57:35;98082.00;;;12.05;60.75
60820;BME280;46641;48.904;9.126;2022-11-20T01:02:25;98080.38;;;12.04;60.79
60820;BME280;46641;48.904;9.126;2022-11-20T01:07:16;98090.88;;;12.04;60.92
60820;BME280;46641;48.904;9.126;2022-11-20T01:12:06;98091.69;;;12.05;60.87
60820;BME280;46641;48.904;9.126;2022-11-20T01:16:56;98094.47;;;12.03;60.65
60820;BME280;46641;48.904;9.126;2022-11-20T01:21:52;98094.28;;;12.05;60.57
60820;BME280;46641;48.904;9.126;2022-11-20T01:26:44;98100.53;;;12.04;60.88
60820;BME280;46641;48.904;9.126;2022-11-20T01:31:36;98097.09;;;12.03;60.58
60820;BME280;46641;48.904;9.126;2022-11-20T01:36:29;98096.28;;;12.03;60.86
60820;BME280;46641;48.904;9.126;2022-11-20T01:41:21;98092.66;;;12.04;60.65
60820;BME280;46641;48.904;9.126;2022-11-20T01:46:37;98095.28;;;12.04;60.66
60820;BME280;46641;48.904;9.126;2022-11-20T01:52:11;98093.47;;;12.04;60.89
60820;BME280;46641;48.904;9.126;2022-11-20T01:56:43;98095.44;;;12.02;60.98
60820;BME280;46641;48.904;9.126;2022-11-20T02:01:34;98091.19;;;12.01;60.91
60820;BME280;46641;48.904;9.126;2022-11-20T02:06:25;98103.31;;;12.02;61.03
60820;BME280;46641;48.904;9.126;2022-11-20T02:11:18;98098.91;;;12.03;61.05
60820;BME280;46641;48.904;9.126;2022-11-20T02:16:11;98092.00;;;12.02;61.01
60820;BME280;46641;48.904;9.126;2022-11-20T02:21:07;98083.31;;;12.01;60.78
60820;BME280;46641;48.904;9.126;2022-11-20T02:26:01;98080.69;;;12.01;61.11
60820;BME280;46641;48.904;9.126;2022-11-20T02:30:53;98084.31;;;12.00;60.79
60820;BME280;46641;48.904;9.126;2022-11-20T02:35:45;98082.50;;;12.01;60.99
60820;BME280;46641;48.904;9.126;2022-11-20T02:40:36;98090.19;;;12.02;60.99
60820;BME280;46641;48.904;9.126;2022-11-20T02:45:26;98084.00;;;12.03;60.98
60820;BME280;46641;48.904;9.126;2022-11-20T02:50:17;98089.06;;;12.05;60.74
60820;BME280;46641;48.904;9.126;2022-11-20T02:55:08;98075.94;;;12.05;60.93
60820;BME280;46641;48.904;9.126;2022-11-20T02:59:58;98073.78;;;12.08;60.75
60820;BME280;46641;48.904;9.126;2022-11-20T03:04:48;98070.53;;;12.06;60.45
60820;BME280;46641;48.904;9.126;2022-11-20T03:09:39;98073.16;;;12.06;60.95
60820;BME280;46641;48.904;9.126;2022-11-20T03:14:29;98072.50;;;12.04;60.82
60820;BME280;46641;48.904;9.126;2022-11-20T03:19:19;98066.25;;;12.05;60.81
60820;BME280;46641;48.904;9.126;2022-11-20T03:24:10;98067.75;;;12.08;60.72
60820;BME280;46641;48.904;9.126;2022-11-20T03:29:02;98059.06;;;12.07;60.51
60820;BME280;46641;48.904;9.126;2022-11-20T03:33:53;98059.06;;;12.07;60.68
60820;BME280;46641;48.904;9.126;2022-11-20T03:38:44;98059.06;;;12.07;60.93
60820;BME280;46641;48.904;9.126;2022-11-20T03:43:34;98054.81;;;12.06;60.85
60820;BME280;46641;48.904;9.126;2022-11-20T03:48:25;98057.44;;;12.06;60.76
60820;BME280;46641;48.904;9.126;2022-11-20T03:53:16;98062.81;;;12.05;60.73
60820;BME280;46641;48.904;9.126;2022-11-20T03:58:07;98064.31;;;12.07;60.71
60820;BME280;46641;48.904;9.126;2022-11-20T04:02:58;98058.25;;;12.07;60.76
60820;BME280;46641;48.904;9.126;2022-11-20T04:07:49;98052.00;;;12.08;60.86
60820;BME280;46641;48.904;9.126;2022-11-20T04:12:39;98049.56;;;12.06;60.76
60820;BME280;46641;48.904;9.126;2022-11-20T04:17:30;98058.25;;;12.07;60.81
60820;BME280;46641;48.904;9.126;2022-11-20T04:22:20;98060.06;;;12.06;60.54
60820;BME280;46641;48.904;9.126;2022-11-20T04:27:10;98053.81;;;12.07;60.74
60820;BME280;46641;48.904;9.126;2022-11-20T04:32:00;98053.81;;;12.07;60.75
60820;BME280;46641;48.904;9.126;2022-11-20T04:36:51;98051.53;;;12.04;60.82
60820;BME280;46641;48.904;9.126;2022-11-20T04:41:41;98050.53;;;12.05;60.96
60820;BME280;46641;48.904;9.126;2022-11-20T04:46:42;98052.19;;;12.06;60.52
60820;BME280;46641;48.904;9.126;2022-11-20T04:51:33;98047.75;;;12.07;60.81
60820;BME280;46641;48.904;9.126;2022-11-20T04:56:24;98047.91;;;12.05;60.89
60820;BME280;46641;48.904;9.126;2022-11-20T05:01:20;98049.56;;;12.06;60.84
60820;BME280;46641;48.904;9.126;2022-11-20T05:06:13;98048.09;;;12.04;60.73
60820;BME280;46641;48.904;9.126;2022-11-20T05:11:06;98044.66;;;12.03;60.70
60820;BME280;46641;48.904;9.126;2022-11-20T05:16:02;98043.66;;;12.04;60.63
60820;BME280;46641;48.904;9.126;2022-11-20T05:20:57;98046.28;;;12.04;60.92
60820;BME280;46641;48.904;9.126;2022-11-20T05:25:47;98043.66;;;12.04;60.62
60820;BME280;46641;48.904;9.126;2022-11-20T05:30:37;98050.53;;;12.05;61.34
60820;BME280;46641;48.904;9.126;2022-11-20T05:35:28;98049.88;;;12.03;60.95
60820;BME280;46641;48.904;9.126;2022-11-20T05:40:18;98046.28;;;12.04;60.97
60820;BME280;46641;48.904;9.126;2022-11-20T05:45:08;98046.28;;;12.04;60.88
60820;BME280;46641;48.904;9.126;2022-11-20T05:49:59;98043.66;;;12.04;60.90
60820;BME280;46641;48.904;9.126;2022-11-20T05:54:49;98036.78;;;12.03;60.98
60820;BME280;46641;48.904;9.126;2022-11-20T05:59:39;98039.41;;;12.03;60.96
60820;BME280;46641;48.904;9.126;2022-11-20T06:04:30;98040.38;;;12.02;60.92
60820;BME280;46641;48.904;9.126;2022-11-20T06:09:20;98033.16;;;12.04;60.87
60820;BME280;46641;48.904;9.126;2022-11-20T06:14:10;98041.84;;;12.05;60.92
60820;BME280;46641;48.904;9.126;2022-11-20T06:19:00;98039.41;;;12.03;61.07
60820;BME280;46641;48.904;9.126;2022-11-20T06:23:52;98038.41;;;12.04;60.59
60820;BME280;46641;48.904;9.126;2022-11-20T06:28:43;98030.53;;;12.04;61.04
60820;BME280;46641;48.904;9.126;2022-11-20T06:33:34;98027.91;;;12.04;60.98
60820;BME280;46641;48.904;9.126;2022-11-20T06:38:25;98030.53;;;12.04;60.78
60820;BME280;46641;48.904;9.126;2022-11-20T06:43:15;98034.78;;;12.05;60.73
60820;BME280;46641;48.904;9.126;2022-11-20T06:48:06;98036.78;;;12.03;61.02
60820;BME280;46641;48.904;9.126;2022-11-20T06:52:56;98045.28;;;12.05;60.75
60820;BME280;46641;48.904;9.126;2022-11-20T06:57:50;98038.41;;;12.04;60.80
60820;BME280;46641;48.904;9.126;2022-11-20T07:02:40;98040.03;;;12.05;60.84
60820;BME280;46641;48.904;9.126;2022-11-20T07:07:31;98043.50;;;12.06;60.85
60820;BME280;46641;48.904;9.126;2022-11-20T07:12:21;98047.91;;;12.05;61.25
60820;BME280;46641;48.904;9.126;2022-11-20T07:17:11;98058.41;;;12.05;60.88
60820;BME280;46641;48.904;9.126;2022-11-20T07:22:02;98057.75;;;12.03;61.02
60820;BME280;46641;48.904;9.126;2022-11-20T07:26:52;98070.69;;;12.05;61.08
60820;BME280;46641;48.904;9.126;2022-11-20T07:31:43;98067.09;;;12.06;61.03
60820;BME280;46641;48.904;9.126;2022-11-20T07:36:33;98073.31;;;12.05;60.81
60820;BME280;46641;48.904;9.126;2022-11-20T07:41:23;98072.34;;;12.06;60.80
60820;BME280;46641;48.904;9.126;2022-11-20T07:46:13;98074.78;;;12.07;60.60
60820;BME280;46641;48.904;9.126;2022-11-20T07:51:04;98068.88;;;12.05;60.86
60820;BME280;46641;48.904;9.126;2022-11-20T07:55:54;98074.78;;;12.07;60.81
60820;BME280;46641;48.904;9.126;2022-11-20T08:00:44;98074.78;;;12.07;60.96
60820;BME280;46641;48.904;9.126;2022-11-20T08:05:35;98073.16;;;12.06;61.09
60820;BME280;46641;48.904;9.126;2022-11-20T08:10:25;98070.53;;;12.06;61.16
60820;BME280;46641;48.904;9.126;2022-11-20T08:15:16;98076.75;;;12.05;61.18
60820;BME280;46641;48.904;9.126;2022-11-20T08:20:06;98078.41;;;12.06;61.33
60820;BME280;46641;48.904;9.126;2022-11-20T08:24:57;98084.66;;;11.97;60.19
60820;BME280;46641;48.904;9.126;2022-11-20T08:29:47;98084.81;;;11.63;60.82
60820;BME280;46641;48.904;9.126;2022-11-20T08:34:38;98088.41;;;11.78;60.76
60820;BME280;46641;48.904;9.126;2022-11-20T08:39:28;98093.38;;;11.89;60.77
60820;BME280;46641;48.904;9.126;2022-11-20T08:44:18;98088.59;;;11.93;60.65
60820;BME280;46641;48.904;9.126;2022-11-20T08:49:11;98093.19;;;11.99;60.27
60820;BME280;46641;48.904;9.126;2022-11-20T08:54:02;98100.38;;;11.97;60.57
60820;BME280;46641;48.904;9.126;2022-11-20T08:58:52;98099.41;;;11.98;60.70
60820;BME280;46641;48.904;9.126;2022-11-20T09:03:43;98112.19;;;12.01;60.61
60820;BME280;46641;48.904;9.126;2022-11-20T09:08:34;98104.97;;;12.03;60.62
60820;BME280;46641;48.904;9.126;2022-11-20T09:13:27;98107.59;;;12.03;60.86
60820;BME280;46641;48.904;9.126;2022-11-20T09:18:17;98117.09;;;12.04;60.90
60820;BME280;46641;48.904;9.126;2022-11-20T09:23:08;98117.09;;;12.04;60.72
60820;BME280;46641;48.904;9.126;2022-11-20T09:27:58;98119.72;;;12.04;60.82
60820;BME280;46641;48.904;9.126;2022-11-20T09:32:49;98116.75;;;12.07;61.00
60820;BME280;46641;48.904;9.126;2022-11-20T09:37:40;98129.06;;;12.07;60.71
60820;BME280;46641;48.904;9.126;2022-11-20T09:57:55;98138.72;;;12.14;60.69
60820;BME280;46641;48.904;9.126;2022-11-20T10:08:42;98136.75;;;12.16;60.77
60820;BME280;46641;48.904;9.126;2022-11-20T10:13:17;98136.41;;;12.20;60.36
60820;BME280;46641;48.904;9.126;2022-11-20T10:18:30;98138.38;;;12.18;60.54
60820;BME280;46641;48.904;9.126;2022-11-20T10:23:40;98149.53;;;12.20;60.68
60820;BME280;46641;48.904;9.126;2022-11-20T10:33:54;98151.16;;;12.21;60.74
60820;BME280;46641;48.904;9.126;2022-11-20T10:38:52;98141.34;;;12.23;60.73
60820;BME280;46641;48.904;9.126;2022-11-20T10:43:44;98140.34;;;12.24;60.92
60820;BME280;46641;48.904;9.126;2022-11-20T10:48:36;98120.81;;;12.26;60.99
60820;BME280;46641;48.904;9.126;2022-11-20T10:53:33;98128.38;;;12.29;60.50
60820;BME280;46641;48.904;9.126;2022-11-20T11:03:26;98123.94;;;12.30;60.39
60820;BME280;46641;48.904;9.126;2022-11-20T11:08:19;98121.16;;;12.23;60.76
60820;BME280;46641;48.904;9.126;2022-11-20T11:13:23;98120.97;;;12.25;60.56
60820;BME280;46641;48.904;9.126;2022-11-20T11:18:32;98110.16;;;12.28;60.90
60820;BME280;46641;48.904;9.126;2022-11-20T11:23:38;98103.75;;;12.30;60.53
60820;BME280;46641;48.904;9.126;2022-11-20T11:28:29;98091.09;;;12.34;60.72
60820;BME280;46641;48.904;9.126;2022-11-20T11:38:21;98081.56;;;12.41;60.49
60820;BME280;46641;48.904;9.126;2022-11-20T11:43:22;98077.97;;;12.42;60.64
60820;BME280;46641;48.904;9.126;2022-11-20T11:48:32;98068.09;;;12.44;59.98
60820;BME280;46641;48.904;9.126;2022-11-20T11:53:25;98064.81;;;12.50;59.92
60820;BME280;46641;48.904;9.126;2022-11-20T11:58:27;98057.75;;;12.51;59.96
60820;BME280;46641;48.904;9.126;2022-11-20T12:03:29;98050.19;;;12.56;59.48
60820;BME280;46641;48.904;9.126;2022-11-20T12:08:59;98059.69;;;12.57;59.34
60820;BME280;46641;48.904;9.126;2022-11-20T12:13:55;98054.09;;;12.60;59.88
60820;BME280;46641;48.904;9.126;2022-11-20T12:18:50;98047.34;;;12.66;59.74
60820;BME280;46641;48.904;9.126;2022-11-20T12:24:00;98047.81;;;12.69;59.43
60820;BME280;46641;48.904;9.126;2022-11-20T12:29:10;98055.16;;;12.74;58.95
60820;BME280;46641;48.904;9.126;2022-11-20T12:34:26;98038.09;;;12.78;58.86
60820;BME280;46641;48.904;9.126;2022-11-20T12:39:34;98033.31;;;12.81;59.11
60820;BME280;46641;48.904;9.126;2022-11-20T12:55:10;98039.47;;;12.97;57.39
60820;BME280;46641;48.904;9.126;2022-11-20T13:09:59;98041.56;;;13.01;57.77
60820;BME280;46641;48.904;9.126;2022-11-20T13:14:52;98036.97;;;13.03;57.76
60820;BME280;46641;48.904;9.126;2022-11-20T13:19:52;98039.25;;;13.06;57.41
60820;BME280;46641;48.904;9.126;2022-11-20T13:24:50;98033.44;;;13.11;56.77
60820;BME280;46641;48.904;9.126;2022-11-20T13:29:44;98027.19;;;13.12;57.94
60820;BME280;46641;48.904;9.126;2022-11-20T13:34:34;98021.13;;;13.12;58.19
60820;BME280;46641;48.904;9.126;2022-11-20T13:39:33;98013.91;;;13.14;57.86
60820;BME280;46641;48.904;9.126;2022-11-20T13:49:23;98006.75;;;13.22;58.21
60820;BME280;46641;48.904;9.126;2022-11-20T13:59:56;98007.59;;;13.23;57.88
60820;BME280;46641;48.904;9.126;2022-11-20T14:04:49;98009.06;;;13.25;57.56
60820;BME280;46641;48.904;9.126;2022-11-20T14:09:51;98011.03;;;13.23;57.85
60820;BME280;46641;48.904;9.126;2022-11-20T14:14:51;98012.53;;;13.26;58.00
60820;BME280;46641;48.904;9.126;2022-11-20T14:19:43;98008.25;;;13.25;58.33
60820;BME280;46641;48.904;9.126;2022-11-20T14:24:36;98007.88;;;13.28;58.42
60820;BME280;46641;48.904;9.126;2022-11-20T14:29:29;98007.88;;;13.28;58.51
60820;BME280;46641;48.904;9.126;2022-11-20T14:34:25;98008.53;;;13.30;58.51
60820;BME280;46641;48.904;9.126;2022-11-20T14:39:26;98000.31;;;13.33;58.20
60820;BME280;46641;48.904;9.126;2022-11-20T14:44:39;97996.88;;;13.32;58.11
60820;BME280;46641;48.904;9.126;2022-11-20T14:49:31;97978.94;;;13.36;58.42
60820;BME280;46641;48.904;9.126;2022-11-20T14:54:22;97968.22;;;13.38;58.24
60820;BME280;46641;48.904;9.126;2022-11-20T14:59:23;97957.69;;;13.38;58.12
60820;BME280;46641;48.904;9.126;2022-11-20T15:04:14;97949.81;;;13.38;58.61
60820;BME280;46641;48.904;9.126;2022-11-20T15:09:12;97950.47;;;13.40;58.74
60820;BME280;46641;48.904;9.126;2022-11-20T15:14:06;97948.81;;;13.39;57.95
60820;BME280;46641;48.904;9.126;2022-11-20T15:18:56;97945.22;;;13.40;58.36
60820;BME280;46641;48.904;9.126;2022-11-20T15:23:47;97942.75;;;13.38;58.42
60820;BME280;46641;48.904;9.126;2022-11-20T15:28:45;97953.91;;;13.40;58.17
60820;BME280;46641;48.904;9.126;2022-11-20T15:33:40;97939.31;;;13.38;58.37
60820;BME280;46641;48.904;9.126;2022-11-20T15:38:31;97942.75;;;13.38;58.36
60820;BME280;46641;48.904;9.126;2022-11-20T15:43:21;97936.88;;;13.36;58.42
60820;BME280;46641;48.904;9.126;2022-11-20T15:48:18;97941.13;;;13.37;58.37
60820;BME280;46641;48.904;9.126;2022-11-20T15:53:09;97934.41;;;13.35;58.54
60820;BME280;46641;48.904;9.126;2022-11-20T15:58:00;97933.59;;;13.34;58.57
60820;BME280;46641;48.904;9.126;2022-11-20T16:02:51;97925.91;;;13.32;58.30
60820;BME280;46641;48.904;9.126;2022-11-20T16:07:41;97927.69;;;13.32;58.59
60820;BME280;46641;48.904;9.126;2022-11-20T16:12:31;97921.81;;;13.30;58.61
60820;BME280;46641;48.904;9.126;2022-11-20T16:17:40;97921.16;;;13.28;58.19
60820;BME280;46641;48.904;9.126;2022-11-20T16:22:33;97915.44;;;13.24;58.64
60820;BME280;46641;48.904;9.126;2022-11-20T16:27:24;97913.00;;;13.23;58.56
60820;BME280;46641;48.904;9.126;2022-11-20T16:32:14;97904.47;;;13.21;58.84
60820;BME280;46641;48.904;9.126;2022-11-20T16:37:04;97910.53;;;13.21;58.52
60820;BME280;46641;48.904;9.126;2022-11-20T16:41:55;97909.72;;;13.21;58.77
60820;BME280;46641;48.904;9.126;2022-11-20T16:46:45;97903.66;;;13.20;58.74
60820;BME280;46641;48.904;9.126;2022-11-20T16:51:36;97904.47;;;13.21;58.50
60820;BME280;46641;48.904;9.126;2022-11-20T16:56:26;97898.56;;;13.19;58.89
60820;BME280;46641;48.904;9.126;2022-11-20T17:01:19;97901.53;;;13.16;58.50
60820;BME280;46641;48.904;9.126;2022-11-20T17:06:18;97886.63;;;13.16;58.29
60820;BME280;46641;48.904;9.126;2022-11-20T17:11:10;97883.97;;;13.16;58.38
60820;BME280;46641;48.904;9.126;2022-11-20T17:16:07;97883.34;;;13.14;58.45
60820;BME280;46641;48.904;9.126;2022-11-20T17:20:58;97872.63;;;13.16;58.82
60820;BME280;46641;48.904;9.126;2022-11-20T17:26:06;97878.91;;;13.15;58.29
60820;BME280;46641;48.904;9.126;2022-11-20T17:31:01;97875.63;;;13.13;58.58
60820;BME280;46641;48.904;9.126;2022-11-20T17:35:51;97874.00;;;13.12;58.72
60820;BME280;46641;48.904;9.126;2022-11-20T17:40:42;97875.16;;;13.09;58.84
60820;BME280;46641;48.904;9.126;2022-11-20T17:45:34;97864.66;;;13.09;58.88
60820;BME280;46641;48.904;9.126;2022-11-20T17:50:25;97857.59;;;13.09;58.78
60820;BME280;46641;48.904;9.126;2022-11-20T17:55:15;97852.53;;;13.08;58.83
60820;BME280;46641;48.904;9.126;2022-11-20T18:00:06;97851.72;;;13.07;58.87
60820;BME280;46641;48.904;9.126;2022-11-20T18:04:57;97841.22;;;13.07;58.79
60820;BME280;46641;48.904;9.126;2022-11-20T18:09:47;97834.13;;;13.08;58.42
60820;BME280;46641;48.904;9.126;2022-11-20T18:14:38;97839.59;;;13.06;58.65
60820;BME280;46641;48.904;9.126;2022-11-20T18:19:31;97822.97;;;13.06;58.75
60820;BME280;46641;48.904;9.126;2022-11-20T18:24:21;97810.03;;;13.04;58.75
60820;BME280;46641;48.904;9.126;2022-11-20T18:29:13;97810.03;;;13.04;58.86
60820;BME280;46641;48.904;9.126;2022-11-20T18:34:03;97801.50;;;13.02;58.77
60820;BME280;46641;48.904;9.126;2022-11-20T18:38:55;97810.19;;;13.03;58.74
60820;BME280;46641;48.904;9.126;2022-11-20T18:43:46;97820.91;;;13.01;59.13
60820;BME280;46641;48.904;9.126;2022-11-20T18:48:54;97824.91;;;12.97;58.87
60820;BME280;46641;48.904;9.126;2022-11-20T18:53:45;97816.81;;;12.99;58.85
60820;BME280;46641;48.904;9.126;2022-11-20T18:58:35;97805.50;;;12.98;58.85
60820;BME280;46641;48.904;9.126;2022-11-20T19:03:26;97791.72;;;12.96;59.09
60820;BME280;46641;48.904;9.126;2022-11-20T19:08:16;97787.47;;;12.95;58.99
60820;BME280;46641;48.904;9.126;2022-11-20T19:13:06;97795.34;;;12.95;59.00
60820;BME280;46641;48.904;9.126;2022-11-20T19:17:56;97789.28;;;12.95;59.09
60820;BME280;46641;48.904;9.126;2022-11-20T19:22:50;97782.56;;;12.92;58.96
60820;BME280;46641;48.904;9.126;2022-11-20T19:27:40;97781.56;;;12.93;58.98
60820;BME280;46641;48.904;9.126;2022-11-20T19:32:31;97770.25;;;12.93;59.25
60820;BME280;46641;48.904;9.126;2022-11-20T19:37:21;97770.44;;;12.91;59.19
60820;BME280;46641;48.904;9.126;2022-11-20T19:42:14;97767.00;;;12.91;59.01
60820;BME280;46641;48.904;9.126;2022-11-20T19:47:04;97767.38;;;12.88;59.27
60820;BME280;46641;48.904;9.126;2022-11-20T19:51:54;97771.81;;;12.87;59.38
60820;BME280;46641;48.904;9.126;2022-11-20T19:56:45;97775.59;;;12.84;59.06
60820;BME280;46641;48.904;9.126;2022-11-20T20:01:38;97760.81;;;12.83;59.11
60820;BME280;46641;48.904;9.126;2022-11-20T20:06:29;97761.66;;;12.84;58.97
60820;BME280;46641;48.904;9.126;2022-11-20T20:11:21;97755.56;;;12.83;59.31
60820;BME280;46641;48.904;9.126;2022-11-20T20:16:14;97758.41;;;12.82;59.12
60820;BME280;46641;48.904;9.126;2022-11-20T20:21:07;97749.88;;;12.80;59.37
60820;BME280;46641;48.904;9.126;2022-11-20T20:25:58;97747.59;;;12.77;59.27
60820;BME280;46641;48.904;9.126;2022-11-20T20:30:49;97758.09;;;12.77;59.25
60820;BME280;46641;48.904;9.126;2022-11-20T20:35:40;97751.06;;;12.77;59.10
60820;BME280;46641;48.904;9.126;2022-11-20T20:40:30;97757.50;;;12.75;59.33
60820;BME280;46641;48.904;9.126;2022-11-20T20:45:21;97768.00;;;12.75;59.45
60820;BME280;46641;48.904;9.126;2022-11-20T20:50:11;97768.34;;;12.72;58.87
60820;BME280;46641;48.904;9.126;2022-11-20T20:55:03;97765.06;;;12.70;59.21
60820;BME280;46641;48.904;9.126;2022-11-20T20:59:53;97776.75;;;12.67;59.47
60820;BME280;46641;48.904;9.126;2022-11-20T21:04:44;97773.50;;;12.65;59.42
60820;BME280;46641;48.904;9.126;2022-11-20T21:09:35;97790.72;;;12.68;59.58
60820;BME280;46641;48.904;9.126;2022-11-20T21:14:25;97774.31;;;12.66;59.31
60820;BME280;46641;48.904;9.126;2022-11-20T21:19:15;97776.28;;;12.63;59.60
60820;BME280;46641;48.904;9.126;2022-11-20T21:24:06;97772.03;;;12.62;59.65
60820;BME280;46641;48.904;9.126;2022-11-20T21:28:56;97780.13;;;12.61;59.64
60820;BME280;46641;48.904;9.126;2022-11-20T21:33:48;97774.22;;;12.59;59.61
60820;BME280;46641;48.904;9.126;2022-11-20T21:38:39;97774.22;;;12.59;59.29
60820;BME280;46641;48.904;9.126;2022-11-20T21:43:29;97776.03;;;12.58;59.55
60820;BME280;46641;48.904;9.126;2022-11-20T21:48:20;97779.63;;;12.57;59.36
60820;BME280;46641;48.904;9.126;2022-11-20T21:53:10;97771.94;;;12.56;59.17
60820;BME280;46641;48.904;9.126;2022-11-20T21:58:00;97770.94;;;12.57;59.38
60820;BME280;46641;48.904;9.126;2022-11-20T22:02:51;97770.13;;;12.56;59.54
60820;BME280;46641;48.904;9.126;2022-11-20T22:07:44;97769.31;;;12.56;59.38
60820;BME280;46641;48.904;9.126;2022-11-20T22:12:34;97788.50;;;12.56;59.43
60820;BME280;46641;48.904;9.126;2022-11-20T22:17:24;97779.00;;;12.55;59.31
60820;BME280;46641;48.904;9.126;2022-11-20T22:22:35;97775.72;;;12.53;59.26
60820;BME280;46641;48.904;9.126;2022-11-20T22:27:25;97782.59;;;12.54;59.56
60820;BME280;46641;48.904;9.126;2022-11-20T22:32:15;97794.09;;;12.53;59.68
60820;BME280;46641;48.904;9.126;2022-11-20T22:37:06;97801.16;;;12.53;59.64
60820;BME280;46641;48.904;9.126;2022-11-20T22:41:56;97781.34;;;12.50;59.73
60820;BME280;46641;48.904;9.126;2022-11-20T22:46:46;97792.47;;;12.52;59.38
60820;BME280;46641;48.904;9.126;2022-11-20T22:51:39;97792.03;;;12.49;59.79
60820;BME280;46641;48.904;9.126;2022-11-20T22:56:30;97781.06;;;12.45;59.67
60820;BME280;46641;48.904;9.126;2022-11-20T23:01:28;97781.53;;;12.49;59.37
60820;BME280;46641;48.904;9.126;2022-11-20T23:06:19;97777.09;;;12.49;59.61
60820;BME280;46641;48.904;9.126;2022-11-20T23:11:21;97777.09;;;12.49;59.20
60820;BME280;46641;48.904;9.126;2022-11-20T23:16:17;97778.91;;;12.49;59.45
60820;BME280;46641;48.904;9.126;2022-11-20T23:21:10;97781.88;;;12.46;59.90
60820;BME280;46641;48.904;9.126;2022-11-20T23:26:10;97775.00;;;12.45;59.52
60820;BME280;46641;48.904;9.126;2022-11-20T23:31:01;97791.56;;;12.45;59.77
60820;BME280;46641;48.904;9.126;2022-11-20T23:35:52;97784.66;;;12.44;59.53
60820;BME280;46641;48.904;9.126;2022-11-20T23:40:46;97785.50;;;12.45;59.26
60820;BME280;46641;48.904;9.126;2022-11-20T23:45:37;97786.66;;;12.42;59.33
60820;BME280;46641;48.904;9.126;2022-11-20T23:50:28;97794.53;;;12.42;59.56
60820;BME280;46641;48.904;9.126;2022-11-20T23:55:19;97795.88;;;12.38;59.48
